sensor_id;sensor_type;location;lat;lon;timestamp;P1;durP1;ratioP1;P2;durP2;ratioP2
35488;SDS011;21602;55.670;37.578;2022-12-28T00:00:03;5.30;;;3.67;;
35488;SDS011;21602;55.670;37.578;2022-12-28T00:02:37;5.93;;;4.13;;
35488;SDS011;21602;55.670;37.578;2022-12-28T00:05:03;7.28;;;4.10;;
35488;SDS011;21602;55.670;37.578;2022-12-28T00:07:29;6.50;;;4.63;;
35488;SDS011;21602;55.670;37.578;2022-12-28T00:09:55;6.70;;;4.15;;
35488;SDS011;21602;55.670;37.578;2022-12-28T00:12:21;5.82;;;4.43;;
35488;SDS011;21602;55.670;37.578;2022-12-28T00:14:46;6.68;;;4.10;;
35488;SDS011;21602;55.670;37.578;2022-12-28T00:17:12;5.38;;;4.07;;
35488;SDS011;21602;55.670;37.578;2022-12-28T00:19:39;7.45;;;4.25;;
35488;SDS011;21602;55.670;37.578;2022-12-28T00:22:05;6.20;;;4.05;;
35488;SDS011;21602;55.670;37.578;2022-12-28T00:24:31;8.40;;;4.20;;
35488;SDS011;21602;55.670;37.578;2022-12-28T00:26:56;10.30;;;4.75;;
35488;SDS011;21602;55.670;37.578;2022-12-28T00:29:22;8.82;;;4.50;;
35488;SDS011;21602;55.670;37.578;2022-12-28T00:31:48;5.95;;;4.60;;
35488;SDS011;21602;55.670;37.578;2022-12-28T00:34:14;6.90;;;4.68;;
35488;SDS011;21602;55.670;37.578;2022-12-28T00:36:40;9.95;;;4.15;;
35488;SDS011;21602;55.670;37.578;2022-12-28T00:39:07;7.57;;;4.68;;
35488;SDS011;21602;55.670;37.578;2022-12-28T00:41:33;7.40;;;4.93;;
35488;SDS011;21602;55.670;37.578;2022-12-28T00:43:59;8.20;;;4.82;;
35488;SDS011;21602;55.670;37.578;2022-12-28T00:46:25;5.75;;;4.35;;
35488;SDS011;21602;55.670;37.578;2022-12-28T00:48:51;7.63;;;4.40;;
35488;SDS011;21602;55.670;37.578;2022-12-28T00:51:17;5.60;;;3.75;;
35488;SDS011;21602;55.670;37.578;2022-12-28T00:53:44;5.93;;;4.47;;
35488;SDS011;21602;55.670;37.578;2022-12-28T00:56:14;6.78;;;4.60;;
35488;SDS011;21602;55.670;37.578;2022-12-28T00:58:41;6.15;;;4.00;;
35488;SDS011;21602;55.670;37.578;2022-12-28T01:01:12;7.15;;;4.80;;
35488;SDS011;21602;55.670;37.578;2022-12-28T01:03:40;6.82;;;4.03;;
35488;SDS011;21602;55.670;37.578;2022-12-28T01:06:06;9.93;;;4.95;;
35488;SDS011;21602;55.670;37.578;2022-12-28T01:08:36;7.57;;;4.22;;
35488;SDS011;21602;55.670;37.578;2022-12-28T01:11:06;6.32;;;4.45;;
35488;SDS011;21602;55.670;37.578;2022-12-28T01:13:33;8.43;;;4.93;;
35488;SDS011;21602;55.670;37.578;2022-12-28T01:16:00;7.90;;;4.45;;
35488;SDS011;21602;55.670;37.578;2022-12-28T01:18:41;7.75;;;4.65;;
35488;SDS011;21602;55.670;37.578;2022-12-28T01:21:08;7.57;;;4.45;;
35488;SDS011;21602;55.670;37.578;2022-12-28T01:23:35;6.55;;;4.78;;
35488;SDS011;21602;55.670;37.578;2022-12-28T01:26:01;8.18;;;4.90;;
35488;SDS011;21602;55.670;37.578;2022-12-28T01:28:31;5.57;;;4.15;;
35488;SDS011;21602;55.670;37.578;2022-12-28T01:31:01;8.45;;;4.80;;
35488;SDS011;21602;55.670;37.578;2022-12-28T01:33:28;6.70;;;4.68;;
35488;SDS011;21602;55.670;37.578;2022-12-28T01:35:54;8.88;;;4.38;;
35488;SDS011;21602;55.670;37.578;2022-12-28T01:38:19;8.07;;;4.15;;
35488;SDS011;21602;55.670;37.578;2022-12-28T01:40:45;9.60;;;4.50;;
35488;SDS011;21602;55.670;37.578;2022-12-28T01:43:14;7.15;;;4.43;;
35488;SDS011;21602;55.670;37.578;2022-12-28T01:45:41;9.25;;;5.07;;
35488;SDS011;21602;55.670;37.578;2022-12-28T01:48:15;6.65;;;4.38;;
35488;SDS011;21602;55.670;37.578;2022-12-28T01:50:47;7.22;;;4.05;;
35488;SDS011;21602;55.670;37.578;2022-12-28T01:53:14;7.50;;;3.92;;
35488;SDS011;21602;55.670;37.578;2022-12-28T01:55:45;10.40;;;4.63;;
35488;SDS011;21602;55.670;37.578;2022-12-28T01:58:14;9.98;;;6.18;;
35488;SDS011;21602;55.670;37.578;2022-12-28T02:00:46;12.48;;;5.97;;
35488;SDS011;21602;55.670;37.578;2022-12-28T02:03:31;7.50;;;5.47;;
35488;SDS011;21602;55.670;37.578;2022-12-28T02:05:59;8.80;;;5.88;;
35488;SDS011;21602;55.670;37.578;2022-12-28T02:10:58;9.23;;;5.60;;
35488;SDS011;21602;55.670;37.578;2022-12-28T02:13:24;11.50;;;6.82;;
35488;SDS011;21602;55.670;37.578;2022-12-28T02:16:10;14.23;;;8.15;;
35488;SDS011;21602;55.670;37.578;2022-12-28T02:18:37;10.90;;;7.03;;
35488;SDS011;21602;55.670;37.578;2022-12-28T02:31:50;12.18;;;6.72;;
35488;SDS011;21602;55.670;37.578;2022-12-28T02:34:29;11.40;;;7.05;;
35488;SDS011;21602;55.670;37.578;2022-12-28T02:39:49;9.75;;;6.13;;
35488;SDS011;21602;55.670;37.578;2022-12-28T02:42:19;11.70;;;7.32;;
35488;SDS011;21602;55.670;37.578;2022-12-28T02:44:48;12.75;;;7.63;;
35488;SDS011;21602;55.670;37.578;2022-12-28T02:47:32;11.52;;;7.05;;
35488;SDS011;21602;55.670;37.578;2022-12-28T02:50:17;12.13;;;7.40;;
35488;SDS011;21602;55.670;37.578;2022-12-28T02:52:48;11.85;;;7.13;;
35488;SDS011;21602;55.670;37.578;2022-12-28T02:56:07;10.75;;;6.68;;
35488;SDS011;21602;55.670;37.578;2022-12-28T03:10:25;8.93;;;6.75;;
35488;SDS011;21602;55.670;37.578;2022-12-28T03:13:00;12.05;;;7.93;;
35488;SDS011;21602;55.670;37.578;2022-12-28T03:15:51;12.77;;;8.38;;
35488;SDS011;21602;55.670;37.578;2022-12-28T03:18:19;16.38;;;9.13;;
35488;SDS011;21602;55.670;37.578;2022-12-28T03:21:07;13.88;;;8.25;;
35488;SDS011;21602;55.670;37.578;2022-12-28T03:23:53;12.55;;;8.52;;
35488;SDS011;21602;55.670;37.578;2022-12-28T03:26:43;11.52;;;7.70;;
35488;SDS011;21602;55.670;37.578;2022-12-28T03:29:40;14.07;;;8.00;;
35488;SDS011;21602;55.670;37.578;2022-12-28T03:32:32;11.63;;;7.60;;
35488;SDS011;21602;55.670;37.578;2022-12-28T03:34:57;12.18;;;8.85;;
35488;SDS011;21602;55.670;37.578;2022-12-28T03:37:36;13.05;;;8.45;;
35488;SDS011;21602;55.670;37.578;2022-12-28T03:40:18;14.00;;;7.90;;
35488;SDS011;21602;55.670;37.578;2022-12-28T03:42:53;14.45;;;8.77;;
35488;SDS011;21602;55.670;37.578;2022-12-28T03:48:34;13.52;;;7.75;;
35488;SDS011;21602;55.670;37.578;2022-12-28T03:51:03;15.93;;;8.37;;
35488;SDS011;21602;55.670;37.578;2022-12-28T03:53:35;12.70;;;7.22;;
35488;SDS011;21602;55.670;37.578;2022-12-28T03:56:08;14.40;;;7.85;;
35488;SDS011;21602;55.670;37.578;2022-12-28T03:58:39;11.00;;;7.38;;
35488;SDS011;21602;55.670;37.578;2022-12-28T04:01:07;16.55;;;8.90;;
35488;SDS011;21602;55.670;37.578;2022-12-28T04:03:34;14.27;;;7.68;;
35488;SDS011;21602;55.670;37.578;2022-12-28T04:06:00;14.27;;;7.15;;
35488;SDS011;21602;55.670;37.578;2022-12-28T04:08:26;18.15;;;8.60;;
35488;SDS011;21602;55.670;37.578;2022-12-28T04:10:53;12.68;;;7.45;;
35488;SDS011;21602;55.670;37.578;2022-12-28T04:13:22;18.83;;;9.50;;
35488;SDS011;21602;55.670;37.578;2022-12-28T04:15:58;13.57;;;7.40;;
35488;SDS011;21602;55.670;37.578;2022-12-28T04:18:29;15.73;;;9.30;;
35488;SDS011;21602;55.670;37.578;2022-12-28T04:20:56;14.77;;;7.00;;
35488;SDS011;21602;55.670;37.578;2022-12-28T04:23:23;15.45;;;7.45;;
35488;SDS011;21602;55.670;37.578;2022-12-28T04:26:01;16.05;;;7.75;;
35488;SDS011;21602;55.670;37.578;2022-12-28T04:28:29;13.40;;;7.68;;
35488;SDS011;21602;55.670;37.578;2022-12-28T04:31:21;16.27;;;7.15;;
35488;SDS011;21602;55.670;37.578;2022-12-28T04:33:57;13.50;;;7.43;;
35488;SDS011;21602;55.670;37.578;2022-12-28T04:36:23;14.55;;;7.85;;
35488;SDS011;21602;55.670;37.578;2022-12-28T04:38:49;15.90;;;8.35;;
35488;SDS011;21602;55.670;37.578;2022-12-28T04:41:16;17.38;;;9.88;;
35488;SDS011;21602;55.670;37.578;2022-12-28T04:43:41;17.27;;;9.00;;
35488;SDS011;21602;55.670;37.578;2022-12-28T04:46:11;16.10;;;8.43;;
35488;SDS011;21602;55.670;37.578;2022-12-28T04:48:38;15.13;;;8.90;;
35488;SDS011;21602;55.670;37.578;2022-12-28T04:51:09;15.05;;;9.48;;
35488;SDS011;21602;55.670;37.578;2022-12-28T04:53:46;16.98;;;9.05;;
35488;SDS011;21602;55.670;37.578;2022-12-28T04:56:12;16.85;;;8.98;;
35488;SDS011;21602;55.670;37.578;2022-12-28T04:58:39;16.08;;;8.20;;
35488;SDS011;21602;55.670;37.578;2022-12-28T05:01:09;16.80;;;9.35;;
35488;SDS011;21602;55.670;37.578;2022-12-28T05:03:38;27.23;;;11.68;;
35488;SDS011;21602;55.670;37.578;2022-12-28T05:06:09;14.63;;;9.30;;
35488;SDS011;21602;55.670;37.578;2022-12-28T05:08:36;22.02;;;9.10;;
35488;SDS011;21602;55.670;37.578;2022-12-28T05:11:04;19.60;;;11.40;;
35488;SDS011;21602;55.670;37.578;2022-12-28T05:13:31;16.60;;;8.40;;
35488;SDS011;21602;55.670;37.578;2022-12-28T05:16:02;18.00;;;9.77;;
35488;SDS011;21602;55.670;37.578;2022-12-28T05:18:29;16.80;;;9.02;;
35488;SDS011;21602;55.670;37.578;2022-12-28T05:21:07;14.65;;;8.25;;
35488;SDS011;21602;55.670;37.578;2022-12-28T05:23:42;14.50;;;8.52;;
35488;SDS011;21602;55.670;37.578;2022-12-28T05:26:13;17.38;;;9.55;;
35488;SDS011;21602;55.670;37.578;2022-12-28T05:28:41;12.65;;;8.15;;
35488;SDS011;21602;55.670;37.578;2022-12-28T05:31:09;12.45;;;7.95;;
35488;SDS011;21602;55.670;37.578;2022-12-28T05:33:36;14.38;;;9.10;;
35488;SDS011;21602;55.670;37.578;2022-12-28T05:38:41;19.70;;;8.55;;
35488;SDS011;21602;55.670;37.578;2022-12-28T05:41:08;15.10;;;8.90;;
35488;SDS011;21602;55.670;37.578;2022-12-28T05:43:36;15.90;;;8.57;;
35488;SDS011;21602;55.670;37.578;2022-12-28T05:46:03;18.02;;;8.95;;
35488;SDS011;21602;55.670;37.578;2022-12-28T05:48:32;13.68;;;8.05;;
35488;SDS011;21602;55.670;37.578;2022-12-28T05:50:59;13.68;;;8.85;;
35488;SDS011;21602;55.670;37.578;2022-12-28T05:53:33;17.75;;;10.38;;
35488;SDS011;21602;55.670;37.578;2022-12-28T05:56:04;16.75;;;9.95;;
35488;SDS011;21602;55.670;37.578;2022-12-28T05:58:32;17.15;;;9.05;;
35488;SDS011;21602;55.670;37.578;2022-12-28T06:01:14;15.52;;;8.88;;
35488;SDS011;21602;55.670;37.578;2022-12-28T06:03:46;15.75;;;8.95;;
35488;SDS011;21602;55.670;37.578;2022-12-28T06:06:16;12.05;;;8.25;;
35488;SDS011;21602;55.670;37.578;2022-12-28T06:08:44;16.92;;;9.85;;
35488;SDS011;21602;55.670;37.578;2022-12-28T06:11:11;21.95;;;9.73;;
35488;SDS011;21602;55.670;37.578;2022-12-28T06:13:39;19.08;;;9.30;;
35488;SDS011;21602;55.670;37.578;2022-12-28T06:16:06;14.25;;;8.65;;
35488;SDS011;21602;55.670;37.578;2022-12-28T06:18:32;18.40;;;9.27;;
35488;SDS011;21602;55.670;37.578;2022-12-28T06:21:21;18.55;;;9.50;;
35488;SDS011;21602;55.670;37.578;2022-12-28T06:23:46;21.98;;;10.90;;
35488;SDS011;21602;55.670;37.578;2022-12-28T06:26:14;17.13;;;9.80;;
35488;SDS011;21602;55.670;37.578;2022-12-28T06:28:42;16.90;;;10.15;;
35488;SDS011;21602;55.670;37.578;2022-12-28T06:31:21;15.68;;;10.27;;
35488;SDS011;21602;55.670;37.578;2022-12-28T06:33:49;15.82;;;9.77;;
35488;SDS011;21602;55.670;37.578;2022-12-28T06:36:25;16.98;;;11.00;;
35488;SDS011;21602;55.670;37.578;2022-12-28T06:38:53;21.25;;;11.13;;
35488;SDS011;21602;55.670;37.578;2022-12-28T06:41:21;22.48;;;11.70;;
35488;SDS011;21602;55.670;37.578;2022-12-28T06:43:48;17.90;;;10.43;;
35488;SDS011;21602;55.670;37.578;2022-12-28T06:46:15;22.63;;;11.10;;
35488;SDS011;21602;55.670;37.578;2022-12-28T06:48:42;22.80;;;10.40;;
35488;SDS011;21602;55.670;37.578;2022-12-28T06:53:38;18.80;;;11.23;;
35488;SDS011;21602;55.670;37.578;2022-12-28T06:56:05;17.83;;;11.20;;
35488;SDS011;21602;55.670;37.578;2022-12-28T06:58:33;17.77;;;11.20;;
35488;SDS011;21602;55.670;37.578;2022-12-28T07:01:09;18.50;;;10.57;;
35488;SDS011;21602;55.670;37.578;2022-12-28T07:03:38;16.98;;;9.93;;
35488;SDS011;21602;55.670;37.578;2022-12-28T07:06:04;18.52;;;10.40;;
35488;SDS011;21602;55.670;37.578;2022-12-28T07:08:30;17.95;;;10.32;;
35488;SDS011;21602;55.670;37.578;2022-12-28T07:13:33;18.00;;;11.40;;
35488;SDS011;21602;55.670;37.578;2022-12-28T07:16:03;17.80;;;10.43;;
35488;SDS011;21602;55.670;37.578;2022-12-28T07:18:30;19.80;;;11.20;;
35488;SDS011;21602;55.670;37.578;2022-12-28T07:20:58;17.73;;;9.40;;
35488;SDS011;21602;55.670;37.578;2022-12-28T07:23:28;16.33;;;9.93;;
35488;SDS011;21602;55.670;37.578;2022-12-28T07:25:56;17.23;;;10.57;;
35488;SDS011;21602;55.670;37.578;2022-12-28T07:28:23;15.35;;;10.15;;
35488;SDS011;21602;55.670;37.578;2022-12-28T07:30:49;16.80;;;9.70;;
35488;SDS011;21602;55.670;37.578;2022-12-28T07:33:15;17.83;;;10.35;;
35488;SDS011;21602;55.670;37.578;2022-12-28T07:35:41;15.38;;;10.10;;
35488;SDS011;21602;55.670;37.578;2022-12-28T07:38:06;14.80;;;10.52;;
35488;SDS011;21602;55.670;37.578;2022-12-28T07:40:32;19.05;;;9.75;;
35488;SDS011;21602;55.670;37.578;2022-12-28T07:42:59;15.15;;;10.60;;
35488;SDS011;21602;55.670;37.578;2022-12-28T07:45:28;14.38;;;9.50;;
35488;SDS011;21602;55.670;37.578;2022-12-28T07:47:54;15.50;;;9.95;;
35488;SDS011;21602;55.670;37.578;2022-12-28T07:50:19;21.27;;;10.02;;
35488;SDS011;21602;55.670;37.578;2022-12-28T07:52:45;15.02;;;9.63;;
35488;SDS011;21602;55.670;37.578;2022-12-28T07:55:11;13.13;;;9.57;;
35488;SDS011;21602;55.670;37.578;2022-12-28T07:57:37;16.23;;;9.50;;
35488;SDS011;21602;55.670;37.578;2022-12-28T08:00:03;16.33;;;9.88;;
35488;SDS011;21602;55.670;37.578;2022-12-28T08:02:37;20.60;;;10.63;;
35488;SDS011;21602;55.670;37.578;2022-12-28T08:05:03;15.32;;;9.73;;
35488;SDS011;21602;55.670;37.578;2022-12-28T08:07:29;15.13;;;10.18;;
35488;SDS011;21602;55.670;37.578;2022-12-28T08:09:55;18.58;;;10.27;;
35488;SDS011;21602;55.670;37.578;2022-12-28T08:12:21;15.00;;;9.65;;
35488;SDS011;21602;55.670;37.578;2022-12-28T08:14:46;16.27;;;9.50;;
35488;SDS011;21602;55.670;37.578;2022-12-28T08:17:12;16.92;;;9.98;;
35488;SDS011;21602;55.670;37.578;2022-12-28T08:19:38;23.88;;;9.25;;
35488;SDS011;21602;55.670;37.578;2022-12-28T08:22:04;16.58;;;9.95;;
35488;SDS011;21602;55.670;37.578;2022-12-28T08:24:29;13.60;;;8.88;;
35488;SDS011;21602;55.670;37.578;2022-12-28T08:26:55;19.02;;;9.88;;
35488;SDS011;21602;55.670;37.578;2022-12-28T08:29:23;17.15;;;9.90;;
35488;SDS011;21602;55.670;37.578;2022-12-28T08:31:49;13.10;;;8.98;;
35488;SDS011;21602;55.670;37.578;2022-12-28T08:34:19;13.27;;;9.38;;
35488;SDS011;21602;55.670;37.578;2022-12-28T08:36:50;15.00;;;8.70;;
35488;SDS011;21602;55.670;37.578;2022-12-28T08:39:17;15.52;;;8.30;;
35488;SDS011;21602;55.670;37.578;2022-12-28T08:41:43;13.68;;;9.30;;
35488;SDS011;21602;55.670;37.578;2022-12-28T08:44:09;16.73;;;8.68;;
35488;SDS011;21602;55.670;37.578;2022-12-28T08:46:35;14.77;;;8.60;;
35488;SDS011;21602;55.670;37.578;2022-12-28T08:49:02;15.70;;;8.80;;
35488;SDS011;21602;55.670;37.578;2022-12-28T08:51:34;15.82;;;8.23;;
35488;SDS011;21602;55.670;37.578;2022-12-28T08:54:03;15.02;;;7.00;;
35488;SDS011;21602;55.670;37.578;2022-12-28T08:56:31;14.68;;;7.88;;
35488;SDS011;21602;55.670;37.578;2022-12-28T08:58:59;12.15;;;6.97;;
35488;SDS011;21602;55.670;37.578;2022-12-28T09:01:32;8.55;;;6.05;;
35488;SDS011;21602;55.670;37.578;2022-12-28T09:03:59;10.05;;;6.78;;
35488;SDS011;21602;55.670;37.578;2022-12-28T09:06:30;10.85;;;7.30;;
35488;SDS011;21602;55.670;37.578;2022-12-28T09:08:56;10.23;;;7.30;;
35488;SDS011;21602;55.670;37.578;2022-12-28T09:11:23;11.45;;;7.43;;
35488;SDS011;21602;55.670;37.578;2022-12-28T09:13:50;10.43;;;7.18;;
35488;SDS011;21602;55.670;37.578;2022-12-28T09:16:17;11.30;;;6.95;;
35488;SDS011;21602;55.670;37.578;2022-12-28T09:18:44;12.52;;;8.55;;
35488;SDS011;21602;55.670;37.578;2022-12-28T09:21:12;11.07;;;8.10;;
35488;SDS011;21602;55.670;37.578;2022-12-28T09:23:43;12.52;;;7.57;;
35488;SDS011;21602;55.670;37.578;2022-12-28T09:26:17;15.60;;;7.82;;
35488;SDS011;21602;55.670;37.578;2022-12-28T09:28:46;15.63;;;8.65;;
35488;SDS011;21602;55.670;37.578;2022-12-28T09:31:24;12.32;;;7.38;;
35488;SDS011;21602;55.670;37.578;2022-12-28T09:33:52;11.63;;;8.77;;
35488;SDS011;21602;55.670;37.578;2022-12-28T09:36:25;12.15;;;8.95;;
35488;SDS011;21602;55.670;37.578;2022-12-28T09:38:52;12.98;;;8.73;;
35488;SDS011;21602;55.670;37.578;2022-12-28T09:43:54;13.88;;;8.77;;
35488;SDS011;21602;55.670;37.578;2022-12-28T09:46:32;15.27;;;9.82;;
35488;SDS011;21602;55.670;37.578;2022-12-28T09:49:00;15.35;;;9.70;;
35488;SDS011;21602;55.670;37.578;2022-12-28T09:51:32;16.40;;;9.52;;
35488;SDS011;21602;55.670;37.578;2022-12-28T09:54:02;13.40;;;8.52;;
35488;SDS011;21602;55.670;37.578;2022-12-28T09:56:32;15.80;;;10.35;;
35488;SDS011;21602;55.670;37.578;2022-12-28T09:59:02;18.08;;;10.70;;
35488;SDS011;21602;55.670;37.578;2022-12-28T10:01:31;16.58;;;9.77;;
35488;SDS011;21602;55.670;37.578;2022-12-28T10:04:00;15.73;;;10.40;;
35488;SDS011;21602;55.670;37.578;2022-12-28T10:06:27;15.48;;;10.23;;
35488;SDS011;21602;55.670;37.578;2022-12-28T10:08:57;17.42;;;10.63;;
35488;SDS011;21602;55.670;37.578;2022-12-28T10:11:30;15.35;;;10.50;;
35488;SDS011;21602;55.670;37.578;2022-12-28T10:14:12;16.13;;;10.23;;
35488;SDS011;21602;55.670;37.578;2022-12-28T10:16:47;18.95;;;11.18;;
35488;SDS011;21602;55.670;37.578;2022-12-28T10:19:17;22.65;;;12.10;;
35488;SDS011;21602;55.670;37.578;2022-12-28T10:21:45;20.92;;;11.88;;
35488;SDS011;21602;55.670;37.578;2022-12-28T10:24:12;18.40;;;11.50;;
35488;SDS011;21602;55.670;37.578;2022-12-28T10:26:39;21.65;;;12.18;;
35488;SDS011;21602;55.670;37.578;2022-12-28T10:29:08;21.25;;;12.55;;
35488;SDS011;21602;55.670;37.578;2022-12-28T10:31:42;21.67;;;11.68;;
35488;SDS011;21602;55.670;37.578;2022-12-28T10:34:15;20.30;;;12.80;;
35488;SDS011;21602;55.670;37.578;2022-12-28T10:36:45;18.48;;;12.95;;
35488;SDS011;21602;55.670;37.578;2022-12-28T10:39:16;18.27;;;12.73;;
35488;SDS011;21602;55.670;37.578;2022-12-28T10:41:51;18.52;;;12.20;;
35488;SDS011;21602;55.670;37.578;2022-12-28T10:44:19;21.23;;;11.85;;
35488;SDS011;21602;55.670;37.578;2022-12-28T10:46:53;15.95;;;11.38;;
35488;SDS011;21602;55.670;37.578;2022-12-28T10:49:24;18.52;;;11.77;;
35488;SDS011;21602;55.670;37.578;2022-12-28T10:54:41;16.48;;;10.90;;
35488;SDS011;21602;55.670;37.578;2022-12-28T10:57:16;15.70;;;10.65;;
35488;SDS011;21602;55.670;37.578;2022-12-28T11:02:50;15.75;;;10.63;;
35488;SDS011;21602;55.670;37.578;2022-12-28T11:05:20;15.73;;;10.68;;
35488;SDS011;21602;55.670;37.578;2022-12-28T11:07:48;17.42;;;10.90;;
35488;SDS011;21602;55.670;37.578;2022-12-28T11:10:27;17.55;;;11.50;;
35488;SDS011;21602;55.670;37.578;2022-12-28T11:12:55;16.27;;;11.13;;
35488;SDS011;21602;55.670;37.578;2022-12-28T11:15:24;16.42;;;10.95;;
35488;SDS011;21602;55.670;37.578;2022-12-28T11:17:57;15.85;;;10.52;;
35488;SDS011;21602;55.670;37.578;2022-12-28T11:20:33;15.05;;;10.43;;
35488;SDS011;21602;55.670;37.578;2022-12-28T11:23:00;16.98;;;11.30;;
35488;SDS011;21602;55.670;37.578;2022-12-28T11:25:31;17.42;;;11.65;;
35488;SDS011;21602;55.670;37.578;2022-12-28T11:28:21;18.17;;;11.48;;
35488;SDS011;21602;55.670;37.578;2022-12-28T11:30:47;17.75;;;11.35;;
35488;SDS011;21602;55.670;37.578;2022-12-28T11:36:28;19.25;;;11.20;;
35488;SDS011;21602;55.670;37.578;2022-12-28T11:38:55;21.15;;;11.93;;
35488;SDS011;21602;55.670;37.578;2022-12-28T11:44:01;18.48;;;12.02;;
35488;SDS011;21602;55.670;37.578;2022-12-28T11:59:23;17.13;;;10.65;;
35488;SDS011;21602;55.670;37.578;2022-12-28T12:02:53;15.95;;;10.45;;
35488;SDS011;21602;55.670;37.578;2022-12-28T12:04:53;16.10;;;9.50;;
35488;SDS011;21602;55.670;37.578;2022-12-28T12:07:26;14.20;;;9.80;;
35488;SDS011;21602;55.670;37.578;2022-12-28T12:10:14;13.88;;;9.52;;
35488;SDS011;21602;55.670;37.578;2022-12-28T12:12:55;17.05;;;9.70;;
35488;SDS011;21602;55.670;37.578;2022-12-28T12:15:27;15.38;;;9.90;;
35488;SDS011;21602;55.670;37.578;2022-12-28T12:18:04;18.45;;;9.88;;
35488;SDS011;21602;55.670;37.578;2022-12-28T12:23:07;17.38;;;10.40;;
35488;SDS011;21602;55.670;37.578;2022-12-28T12:25:43;17.65;;;10.02;;
35488;SDS011;21602;55.670;37.578;2022-12-28T12:28:30;13.88;;;9.55;;
35488;SDS011;21602;55.670;37.578;2022-12-28T12:35:55;35.03;;;9.65;;
35488;SDS011;21602;55.670;37.578;2022-12-28T12:53:00;12.05;;;8.45;;
35488;SDS011;21602;55.670;37.578;2022-12-28T12:58:24;13.68;;;9.02;;
35488;SDS011;21602;55.670;37.578;2022-12-28T13:01:06;14.10;;;8.55;;
35488;SDS011;21602;55.670;37.578;2022-12-28T13:03:48;13.45;;;8.85;;
35488;SDS011;21602;55.670;37.578;2022-12-28T13:06:17;15.50;;;9.07;;
35488;SDS011;21602;55.670;37.578;2022-12-28T13:08:47;13.90;;;8.32;;
35488;SDS011;21602;55.670;37.578;2022-12-28T13:11:18;11.40;;;7.93;;
35488;SDS011;21602;55.670;37.578;2022-12-28T13:13:46;11.85;;;7.45;;
35488;SDS011;21602;55.670;37.578;2022-12-28T13:16:15;12.45;;;7.88;;
35488;SDS011;21602;55.670;37.578;2022-12-28T13:18:56;10.90;;;7.50;;
35488;SDS011;21602;55.670;37.578;2022-12-28T13:21:45;9.80;;;7.30;;
35488;SDS011;21602;55.670;37.578;2022-12-28T13:24:18;11.82;;;6.90;;
35488;SDS011;21602;55.670;37.578;2022-12-28T13:26:49;11.18;;;7.47;;
35488;SDS011;21602;55.670;37.578;2022-12-28T13:29:23;11.82;;;7.15;;
35488;SDS011;21602;55.670;37.578;2022-12-28T13:31:52;10.85;;;7.50;;
35488;SDS011;21602;55.670;37.578;2022-12-28T13:34:20;11.40;;;7.00;;
35488;SDS011;21602;55.670;37.578;2022-12-28T13:36:52;11.80;;;6.30;;
35488;SDS011;21602;55.670;37.578;2022-12-28T13:39:26;11.50;;;7.43;;
35488;SDS011;21602;55.670;37.578;2022-12-28T13:41:58;10.40;;;6.95;;
35488;SDS011;21602;55.670;37.578;2022-12-28T13:47:01;9.98;;;7.20;;
35488;SDS011;21602;55.670;37.578;2022-12-28T13:49:33;11.88;;;7.53;;
35488;SDS011;21602;55.670;37.578;2022-12-28T13:52:07;10.02;;;7.05;;
35488;SDS011;21602;55.670;37.578;2022-12-28T13:54:36;10.95;;;6.72;;
35488;SDS011;21602;55.670;37.578;2022-12-28T13:57:03;10.88;;;6.45;;
35488;SDS011;21602;55.670;37.578;2022-12-28T13:59:32;11.57;;;7.43;;
35488;SDS011;21602;55.670;37.578;2022-12-28T14:02:00;13.13;;;6.75;;
35488;SDS011;21602;55.670;37.578;2022-12-28T14:04:28;9.95;;;6.03;;
35488;SDS011;21602;55.670;37.578;2022-12-28T14:06:55;11.60;;;6.30;;
35488;SDS011;21602;55.670;37.578;2022-12-28T14:09:23;9.98;;;6.90;;
35488;SDS011;21602;55.670;37.578;2022-12-28T14:11:49;8.48;;;6.50;;
35488;SDS011;21602;55.670;37.578;2022-12-28T14:14:15;10.65;;;6.82;;
35488;SDS011;21602;55.670;37.578;2022-12-28T14:16:41;10.73;;;6.03;;
35488;SDS011;21602;55.670;37.578;2022-12-28T14:19:08;11.35;;;7.05;;
35488;SDS011;21602;55.670;37.578;2022-12-28T14:21:37;8.18;;;5.65;;
35488;SDS011;21602;55.670;37.578;2022-12-28T14:24:13;7.45;;;5.82;;
35488;SDS011;21602;55.670;37.578;2022-12-28T14:26:44;12.98;;;7.20;;
35488;SDS011;21602;55.670;37.578;2022-12-28T14:29:18;8.85;;;6.47;;
35488;SDS011;21602;55.670;37.578;2022-12-28T14:31:53;8.13;;;5.93;;
35488;SDS011;21602;55.670;37.578;2022-12-28T14:34:23;10.48;;;6.68;;
35488;SDS011;21602;55.670;37.578;2022-12-28T14:36:52;9.90;;;5.97;;
35488;SDS011;21602;55.670;37.578;2022-12-28T14:41:46;11.63;;;5.97;;
35488;SDS011;21602;55.670;37.578;2022-12-28T14:44:12;10.35;;;7.32;;
35488;SDS011;21602;55.670;37.578;2022-12-28T14:46:41;9.60;;;5.18;;
35488;SDS011;21602;55.670;37.578;2022-12-28T14:54:51;10.30;;;6.10;;
35488;SDS011;21602;55.670;37.578;2022-12-28T15:00:26;9.85;;;6.55;;
35488;SDS011;21602;55.670;37.578;2022-12-28T15:03:20;10.35;;;6.43;;
35488;SDS011;21602;55.670;37.578;2022-12-28T15:05:48;9.95;;;5.90;;
35488;SDS011;21602;55.670;37.578;2022-12-28T15:08:23;8.88;;;6.22;;
35488;SDS011;21602;55.670;37.578;2022-12-28T15:13:38;7.75;;;5.35;;
35488;SDS011;21602;55.670;37.578;2022-12-28T15:16:25;13.25;;;6.35;;
35488;SDS011;21602;55.670;37.578;2022-12-28T15:19:20;10.88;;;6.28;;
35488;SDS011;21602;55.670;37.578;2022-12-28T15:21:51;10.32;;;7.00;;
35488;SDS011;21602;55.670;37.578;2022-12-28T15:24:17;10.95;;;5.97;;
35488;SDS011;21602;55.670;37.578;2022-12-28T15:26:43;11.75;;;7.00;;
35488;SDS011;21602;55.670;37.578;2022-12-28T15:29:09;8.32;;;5.90;;
35488;SDS011;21602;55.670;37.578;2022-12-28T15:34:17;11.45;;;6.65;;
35488;SDS011;21602;55.670;37.578;2022-12-28T15:36:43;11.95;;;6.30;;
35488;SDS011;21602;55.670;37.578;2022-12-28T15:39:13;9.18;;;5.88;;
35488;SDS011;21602;55.670;37.578;2022-12-28T15:41:39;10.45;;;6.60;;
35488;SDS011;21602;55.670;37.578;2022-12-28T15:44:12;8.35;;;6.03;;
35488;SDS011;21602;55.670;37.578;2022-12-28T15:46:39;7.88;;;5.90;;
35488;SDS011;21602;55.670;37.578;2022-12-28T15:49:05;8.82;;;5.80;;
35488;SDS011;21602;55.670;37.578;2022-12-28T15:51:31;8.73;;;6.72;;
35488;SDS011;21602;55.670;37.578;2022-12-28T15:53:57;7.55;;;6.35;;
35488;SDS011;21602;55.670;37.578;2022-12-28T15:56:24;10.27;;;6.18;;
35488;SDS011;21602;55.670;37.578;2022-12-28T16:01:19;10.30;;;6.93;;
35488;SDS011;21602;55.670;37.578;2022-12-28T16:03:47;12.63;;;6.75;;
35488;SDS011;21602;55.670;37.578;2022-12-28T16:06:17;14.18;;;6.60;;
35488;SDS011;21602;55.670;37.578;2022-12-28T16:08:43;9.93;;;6.32;;
35488;SDS011;21602;55.670;37.578;2022-12-28T16:11:10;11.73;;;6.63;;
35488;SDS011;21602;55.670;37.578;2022-12-28T16:13:40;12.90;;;6.10;;
35488;SDS011;21602;55.670;37.578;2022-12-28T16:16:07;8.93;;;6.60;;
35488;SDS011;21602;55.670;37.578;2022-12-28T16:18:35;9.27;;;5.57;;
35488;SDS011;21602;55.670;37.578;2022-12-28T16:21:02;10.57;;;7.15;;
35488;SDS011;21602;55.670;37.578;2022-12-28T16:23:33;9.32;;;6.38;;
35488;SDS011;21602;55.670;37.578;2022-12-28T16:26:04;9.70;;;6.07;;
35488;SDS011;21602;55.670;37.578;2022-12-28T16:28:31;10.88;;;5.78;;
35488;SDS011;21602;55.670;37.578;2022-12-28T16:30:58;9.57;;;6.10;;